createdAt,value
2022-10-25T00:00:54.091Z,12.94
2022-10-25T00:03:20.634Z,12.83
2022-10-25T00:05:47.378Z,12.86
2022-10-25T00:08:13.887Z,12.82
2022-10-25T00:10:40.336Z,12.81
2022-10-25T00:13:06.803Z,12.76
2022-10-25T00:15:33.360Z,12.72
2022-10-25T00:17:59.852Z,12.68
2022-10-25T00:20:26.511Z,12.59
2022-10-25T00:22:52.963Z,12.57
2022-10-25T00:25:19.581Z,12.63
2022-10-25T00:27:47.063Z,12.60
2022-10-25T00:30:14.289Z,12.67
2022-10-25T00:32:40.747Z,12.67
2022-10-25T00:35:07.634Z,12.64
2022-10-25T00:37:36.263Z,12.63
2022-10-25T00:40:03.542Z,12.57
2022-10-25T00:42:30.149Z,12.54
2022-10-25T00:44:58.985Z,12.63
2022-10-25T00:47:43.041Z,12.61
2022-10-25T00:50:18.657Z,12.66
2022-10-25T00:52:47.579Z,12.71
2022-10-25T00:55:17.581Z,12.72
2022-10-25T00:57:49.115Z,12.68
2022-10-25T01:00:15.988Z,12.65
2022-10-25T01:02:42.829Z,12.60
2022-10-25T01:05:10.026Z,12.60
2022-10-25T01:07:37.154Z,12.62
2022-10-25T01:10:04.244Z,12.60
2022-10-25T01:12:30.902Z,12.66
2022-10-25T01:14:57.413Z,12.69
2022-10-25T01:17:42.282Z,12.59
2022-10-25T01:20:22.717Z,12.71
2022-10-25T01:23:28.073Z,12.70
2022-10-25T01:26:28.540Z,12.71
2022-10-25T01:29:17.477Z,12.67
2022-10-25T01:31:49.973Z,12.69
2022-10-25T01:34:31.326Z,12.54
2022-10-25T01:37:12.017Z,12.56
2022-10-25T01:40:09.246Z,12.58
2022-10-25T01:43:04.657Z,12.58
2022-10-25T01:45:38.711Z,12.47
2022-10-25T01:48:14.121Z,12.53
2022-10-25T01:50:43.131Z,12.50
2022-10-25T01:53:12.196Z,12.48
2022-10-25T01:55:58.399Z,12.48
2022-10-25T01:58:27.903Z,12.39
2022-10-25T02:01:26.050Z,12.41
2022-10-25T02:04:13.881Z,12.37
2022-10-25T02:07:02.243Z,12.36
2022-10-25T02:09:58.177Z,12.31
2022-10-25T02:12:29.276Z,12.21
2022-10-25T02:15:18.675Z,12.14
2022-10-25T02:17:52.036Z,12.31
2022-10-25T02:20:22.952Z,12.24
2022-10-25T02:22:51.142Z,12.26
2022-10-25T02:25:18.439Z,12.24
2022-10-25T02:27:46.813Z,12.23
2022-10-25T02:30:13.941Z,12.29
2022-10-25T02:32:40.393Z,12.33
2022-10-25T02:35:14.366Z,12.34
2022-10-25T02:37:41.063Z,12.36
2022-10-25T02:40:09.145Z,12.41
2022-10-25T02:42:35.760Z,12.41
2022-10-25T02:45:02.176Z,12.43
2022-10-25T02:47:28.762Z,12.46
2022-10-25T02:49:55.314Z,12.52
2022-10-25T02:52:21.903Z,12.50
2022-10-25T02:54:48.384Z,12.37
2022-10-25T02:57:14.879Z,12.36
2022-10-25T02:59:41.376Z,12.41
2022-10-25T03:02:08.859Z,12.35
2022-10-25T03:04:35.425Z,12.42
2022-10-25T03:07:01.883Z,12.38
2022-10-25T03:09:28.418Z,12.33
2022-10-25T03:11:54.968Z,12.30
2022-10-25T03:14:22.590Z,12.30
2022-10-25T03:16:49.100Z,12.18
2022-10-25T03:19:15.607Z,12.10
2022-10-25T03:21:42.121Z,12.12
2022-10-25T03:24:08.915Z,12.10
2022-10-25T03:26:35.419Z,12.01
2022-10-25T03:29:01.859Z,12.07
2022-10-25T03:31:28.411Z,12.00
2022-10-25T03:33:54.804Z,12.06
2022-10-25T03:36:21.309Z,11.99
2022-10-25T03:38:47.694Z,12.07
2022-10-25T03:41:14.127Z,12.01
2022-10-25T03:43:40.665Z,11.98
2022-10-25T03:46:07.183Z,11.91
2022-10-25T03:48:33.678Z,11.88
2022-10-25T03:51:00.185Z,11.92
2022-10-25T03:53:27.796Z,11.93
2022-10-25T03:55:54.257Z,12.05
2022-10-25T03:58:20.756Z,11.91
2022-10-25T04:00:47.523Z,11.88
2022-10-25T04:03:14.079Z,11.94
2022-10-25T04:05:40.503Z,11.96
2022-10-25T04:08:07.350Z,11.92
2022-10-25T04:10:33.794Z,11.98
2022-10-25T04:13:00.565Z,12.08
2022-10-25T04:15:27.355Z,12.10
2022-10-25T04:17:54.065Z,12.14
2022-10-25T04:20:20.599Z,12.23
2022-10-25T04:22:53.992Z,12.25
2022-10-25T04:25:21.148Z,12.23
2022-10-25T04:27:47.976Z,12.27
2022-10-25T04:30:14.970Z,12.29
2022-10-25T04:32:41.481Z,12.37
2022-10-25T04:35:08.417Z,12.40
2022-10-25T04:37:34.930Z,12.34
2022-10-25T04:40:01.589Z,12.29
2022-10-25T04:42:28.004Z,12.33
2022-10-25T04:44:54.510Z,12.43
2022-10-25T04:47:20.955Z,12.31
2022-10-25T04:49:48.606Z,12.32
2022-10-25T04:52:15.001Z,12.39
2022-10-25T04:54:41.561Z,12.30
2022-10-25T04:57:08.026Z,12.34
2022-10-25T04:59:34.564Z,12.26
2022-10-25T05:02:00.979Z,12.24
2022-10-25T05:04:28.577Z,12.18
2022-10-25T05:06:55.128Z,12.13
2022-10-25T05:09:21.802Z,12.05
2022-10-25T05:11:48.264Z,12.00
2022-10-25T05:14:15.177Z,11.87
2022-10-25T05:16:41.767Z,11.84
2022-10-25T05:19:08.319Z,11.85
2022-10-25T05:21:35.430Z,11.82
2022-10-25T05:24:02.682Z,11.78
2022-10-25T05:26:31.588Z,11.69
2022-10-25T05:28:58.124Z,11.70
2022-10-25T05:31:27.332Z,11.67
2022-10-25T05:33:56.768Z,11.63
2022-10-25T05:36:23.536Z,11.57
2022-10-25T05:38:50.175Z,11.50
2022-10-25T05:41:18.779Z,11.42
2022-10-25T05:43:46.059Z,11.37
2022-10-25T05:46:17.872Z,11.30
2022-10-25T05:48:48.387Z,11.33
2022-10-25T05:51:34.559Z,11.38
2022-10-25T05:54:04.582Z,11.38
2022-10-25T05:56:32.335Z,11.49
2022-10-25T05:59:02.254Z,11.50
2022-10-25T06:01:28.853Z,11.54
2022-10-25T06:03:55.868Z,11.62
2022-10-25T06:06:23.628Z,11.56
2022-10-25T06:08:50.555Z,11.68
2022-10-25T06:11:19.707Z,11.69
2022-10-25T06:13:46.581Z,11.77
2022-10-25T06:16:16.135Z,11.92
2022-10-25T06:18:43.391Z,11.99
2022-10-25T06:21:15.380Z,12.16
2022-10-25T06:23:42.363Z,12.13
2022-10-25T06:26:14.349Z,12.22
2022-10-25T06:28:41.295Z,12.27
2022-10-25T06:31:10.556Z,12.19
2022-10-25T06:33:37.798Z,12.21
2022-10-25T06:36:07.381Z,12.24
2022-10-25T06:38:34.101Z,12.31
2022-10-25T06:41:02.269Z,12.33
2022-10-25T06:43:29.552Z,12.30
2022-10-25T06:45:56.565Z,12.37
2022-10-25T06:48:23.567Z,12.32
2022-10-25T06:51:04.653Z,12.36
2022-10-25T06:53:31.941Z,12.36
2022-10-25T06:56:09.220Z,12.47
2022-10-25T06:58:39.318Z,12.45
2022-10-25T07:01:14.303Z,12.46
2022-10-25T07:03:42.061Z,12.49
2022-10-25T07:06:16.043Z,12.67
2022-10-25T07:08:44.725Z,12.74
2022-10-25T07:11:17.781Z,12.71
2022-10-25T07:13:44.947Z,12.68
2022-10-25T07:16:17.283Z,12.71
2022-10-25T07:18:44.267Z,12.73
2022-10-25T07:21:16.365Z,12.73
2022-10-25T07:23:43.787Z,12.87
2022-10-25T07:26:16.501Z,12.83
2022-10-25T07:28:45.119Z,12.79
2022-10-25T07:31:14.676Z,12.88
2022-10-25T07:33:41.172Z,12.92
2022-10-25T07:36:11.187Z,12.97
2022-10-25T07:38:38.357Z,13.02
2022-10-25T07:41:05.546Z,12.92
2022-10-25T07:43:33.485Z,13.01
2022-10-25T07:46:00.128Z,13.02
2022-10-25T07:48:26.870Z,12.97
2022-10-25T07:50:53.359Z,13.00
2022-10-25T07:53:22.078Z,13.05
2022-10-25T07:55:55.341Z,13.23
2022-10-25T07:58:22.925Z,13.32
2022-10-25T08:00:49.745Z,13.36
2022-10-25T08:03:18.161Z,13.49
2022-10-25T08:05:46.509Z,13.57
2022-10-25T08:08:14.749Z,13.64
2022-10-25T08:10:43.093Z,13.71
2022-10-25T08:13:10.025Z,13.72
2022-10-25T08:15:36.688Z,13.84
2022-10-25T08:18:04.359Z,13.85
2022-10-25T08:20:49.675Z,13.87
2022-10-25T08:23:17.202Z,13.95
2022-10-25T08:25:43.925Z,14.19
2022-10-25T08:28:10.664Z,14.19
2022-10-25T08:30:37.306Z,14.38
2022-10-25T08:33:03.861Z,14.38
2022-10-25T08:35:30.418Z,14.50
2022-10-25T08:38:00.786Z,14.59
2022-10-25T08:40:39.510Z,14.61
2022-10-25T08:43:33.602Z,14.62
2022-10-25T08:46:10.619Z,14.66
2022-10-25T08:48:44.517Z,14.70
2022-10-25T08:51:21.125Z,14.87
2022-10-25T08:53:52.133Z,14.97
2022-10-25T08:56:19.204Z,14.99
2022-10-25T08:59:05.181Z,14.94
2022-10-25T09:01:38.492Z,14.82
2022-10-25T09:04:05.287Z,14.75
2022-10-25T09:06:38.233Z,14.71
2022-10-25T09:09:35.701Z,14.62
2022-10-25T09:12:19.868Z,14.65
2022-10-25T09:15:15.694Z,14.63
2022-10-25T09:17:53.615Z,14.81
2022-10-25T09:20:28.606Z,14.94
2022-10-25T09:23:00.607Z,14.95
2022-10-25T09:25:33.138Z,14.98
2022-10-25T09:28:16.578Z,15.10
2022-10-25T09:30:44.288Z,15.13
2022-10-25T09:33:13.332Z,15.24
2022-10-25T09:35:42.550Z,15.26
2022-10-25T09:38:18.262Z,15.33
2022-10-25T09:40:49.185Z,15.38
2022-10-25T09:43:21.779Z,15.41
2022-10-25T09:45:57.552Z,15.48
2022-10-25T09:48:29.889Z,15.43
2022-10-25T09:51:24.317Z,15.34
2022-10-25T09:53:53.352Z,15.40
2022-10-25T09:56:19.806Z,15.39
2022-10-25T09:58:47.411Z,15.43
2022-10-25T10:01:20.017Z,15.42
2022-10-25T10:03:50.280Z,15.41
2022-10-25T10:06:26.007Z,15.43
2022-10-25T10:09:02.784Z,15.45
2022-10-25T10:11:34.329Z,15.45
2022-10-25T10:14:10.461Z,15.43
2022-10-25T10:16:45.466Z,15.38
2022-10-25T10:19:21.394Z,15.42
2022-10-25T10:21:51.191Z,15.51
2022-10-25T10:24:23.733Z,15.45
2022-10-25T10:26:55.447Z,15.38
2022-10-25T10:29:24.438Z,15.49
2022-10-25T10:31:53.763Z,15.46
2022-10-25T10:34:23.117Z,15.44
2022-10-25T10:37:15.999Z,15.47
2022-10-25T10:39:57.705Z,15.42
2022-10-25T10:42:41.250Z,15.50
2022-10-25T10:45:12.456Z,15.43
2022-10-25T10:47:55.856Z,15.51
2022-10-25T10:50:22.408Z,15.58
2022-10-25T10:52:49.231Z,15.59
2022-10-25T10:55:26.058Z,15.67
2022-10-25T10:57:54.135Z,15.74
2022-10-25T11:00:23.524Z,15.79
2022-10-25T11:02:50.608Z,15.75
2022-10-25T11:05:26.607Z,15.80
2022-10-25T11:08:09.280Z,16.02
2022-10-25T11:10:36.933Z,16.17
2022-10-25T11:13:20.898Z,16.09
2022-10-25T11:15:50.433Z,16.19
2022-10-25T11:18:19.168Z,16.23
2022-10-25T11:20:57.200Z,16.25
2022-10-25T11:24:00.604Z,16.24
2022-10-25T11:26:53.663Z,16.36
2022-10-25T11:29:42.075Z,16.34
2022-10-25T11:32:11.546Z,16.44
2022-10-25T11:34:50.635Z,16.35
2022-10-25T11:37:24.369Z,16.28
2022-10-25T11:40:06.742Z,16.24
2022-10-25T11:42:36.052Z,16.20
2022-10-25T11:45:40.185Z,16.19
2022-10-25T11:48:18.660Z,16.20
2022-10-25T11:51:04.773Z,16.21
2022-10-25T11:53:42.652Z,16.29
2022-10-25T11:56:38.624Z,16.44
2022-10-25T11:59:28.523Z,16.60
2022-10-25T12:02:23.610Z,16.70
2022-10-25T12:04:58.928Z,16.64
2022-10-25T12:07:33.712Z,16.59
2022-10-25T12:10:32.733Z,16.48
2022-10-25T12:13:16.672Z,16.54
2022-10-25T12:15:48.593Z,16.45
2022-10-25T12:18:25.270Z,16.41
2022-10-25T12:20:54.177Z,16.50
2022-10-25T12:23:24.010Z,16.56
2022-10-25T12:26:07.558Z,16.69
2022-10-25T12:28:47.124Z,16.80
2022-10-25T12:31:27.840Z,16.71
2022-10-25T12:34:01.658Z,16.66
2022-10-25T12:36:37.016Z,16.54
2022-10-25T12:39:15.561Z,16.47
2022-10-25T12:41:45.964Z,16.42
2022-10-25T12:44:29.933Z,16.40
2022-10-25T12:47:11.888Z,16.39
2022-10-25T12:50:06.414Z,16.55
2022-10-25T12:52:35.789Z,16.59
2022-10-25T12:55:31.991Z,16.61
2022-10-25T12:58:16.797Z,16.53
2022-10-25T13:00:58.591Z,16.42
2022-10-25T13:04:05.456Z,16.47
2022-10-25T13:06:37.811Z,16.59
2022-10-25T13:09:16.281Z,16.74
2022-10-25T13:11:49.411Z,16.96
2022-10-25T13:14:43.567Z,17.21
2022-10-25T13:17:16.327Z,17.32
2022-10-25T13:20:22.759Z,17.38
2022-10-25T13:22:49.736Z,17.50
2022-10-25T13:25:38.418Z,17.48
2022-10-25T13:28:10.935Z,17.43
2022-10-25T13:30:39.919Z,17.49
2022-10-25T13:33:23.941Z,17.36
2022-10-25T13:35:50.601Z,17.42
2022-10-25T13:38:39.062Z,17.49
2022-10-25T13:41:18.684Z,17.32
2022-10-25T13:44:03.885Z,17.23
2022-10-25T13:46:39.666Z,17.32
2022-10-25T13:49:31.712Z,17.26
2022-10-25T13:52:01.511Z,17.24
2022-10-25T13:54:57.398Z,17.34
2022-10-25T13:57:42.631Z,17.30
2022-10-25T14:00:31.652Z,17.27
2022-10-25T14:03:10.450Z,17.17
2022-10-25T14:05:55.631Z,17.20
2022-10-25T14:08:46.691Z,17.21
2022-10-25T14:11:36.217Z,17.27
2022-10-25T14:14:11.708Z,17.28
2022-10-25T14:16:44.124Z,17.31
2022-10-25T14:19:23.163Z,17.47
2022-10-25T14:21:52.228Z,17.42
2022-10-25T14:24:20.449Z,17.28
2022-10-25T14:26:52.442Z,17.34
2022-10-25T14:29:22.258Z,17.39
2022-10-25T14:31:49.323Z,17.28
2022-10-25T14:34:23.655Z,17.17
2022-10-25T14:36:56.230Z,17.05
2022-10-25T14:39:24.321Z,16.84
2022-10-25T14:41:54.911Z,16.62
2022-10-25T14:44:27.958Z,16.54
2022-10-25T14:46:56.323Z,16.33
2022-10-25T14:49:23.225Z,16.20
2022-10-25T14:52:16.237Z,15.99
2022-10-25T14:54:46.568Z,16.01
2022-10-25T14:57:24.257Z,16.10
2022-10-25T14:59:55.379Z,16.22
2022-10-25T15:02:32.516Z,16.36
2022-10-25T15:05:01.010Z,16.31
2022-10-25T15:07:39.617Z,16.38
2022-10-25T15:10:27.088Z,16.33
2022-10-25T15:12:53.535Z,16.28
2022-10-25T15:15:32.099Z,16.07
2022-10-25T15:17:58.644Z,15.86
2022-10-25T15:20:34.353Z,15.70
2022-10-25T15:23:13.388Z,15.52
2022-10-25T15:25:39.823Z,15.36
2022-10-25T15:28:12.423Z,15.21
2022-10-25T15:30:45.702Z,14.97
2022-10-25T15:33:16.645Z,14.87
2022-10-25T15:35:50.752Z,14.86
2022-10-25T15:38:18.673Z,14.83
2022-10-25T15:40:47.233Z,14.73
2022-10-25T15:43:13.924Z,14.65
2022-10-25T15:45:40.864Z,14.55
2022-10-25T15:48:14.053Z,14.44
2022-10-25T15:50:45.815Z,14.36
2022-10-25T15:53:13.371Z,14.19
2022-10-25T15:55:39.881Z,14.13
2022-10-25T15:58:09.761Z,14.07
2022-10-25T16:00:38.104Z,14.03
2022-10-25T16:03:08.403Z,14.01
2022-10-25T16:05:37.213Z,13.99
2022-10-25T16:08:04.975Z,13.93
2022-10-25T16:10:32.044Z,13.82
2022-10-25T16:13:05.870Z,13.72
2022-10-25T16:15:32.908Z,13.59
2022-10-25T16:17:59.495Z,13.51
2022-10-25T16:20:28.376Z,13.44
2022-10-25T16:22:55.827Z,13.42
2022-10-25T16:25:29.059Z,13.25
2022-10-25T16:27:59.588Z,13.12
2022-10-25T16:30:30.381Z,13.06
2022-10-25T16:32:56.766Z,12.99
2022-10-25T16:35:24.620Z,12.98
2022-10-25T16:37:51.888Z,13.00
2022-10-25T16:40:20.339Z,13.04
2022-10-25T16:42:48.322Z,13.16
2022-10-25T16:45:28.145Z,13.08
2022-10-25T16:47:55.765Z,13.13
2022-10-25T16:50:29.935Z,13.19
2022-10-25T16:52:59.171Z,13.20
2022-10-25T16:55:28.705Z,13.20
2022-10-25T16:57:56.626Z,13.18
2022-10-25T17:00:24.901Z,13.22
2022-10-25T17:02:51.944Z,13.19
2022-10-25T17:05:24.382Z,13.16
2022-10-25T17:07:50.941Z,13.12
2022-10-25T17:10:19.322Z,13.07
2022-10-25T17:12:51.474Z,13.03
2022-10-25T17:15:18.812Z,12.95
2022-10-25T17:17:46.734Z,12.88
2022-10-25T17:20:15.797Z,12.86
2022-10-25T17:22:42.732Z,12.76
2022-10-25T17:25:10.509Z,12.73
2022-10-25T17:27:41.765Z,12.74
2022-10-25T17:30:10.460Z,12.68
2022-10-25T17:32:37.984Z,12.63
2022-10-25T17:35:05.820Z,12.57
2022-10-25T17:37:32.628Z,12.45
2022-10-25T17:39:59.396Z,12.37
2022-10-25T17:42:28.246Z,12.29
2022-10-25T17:44:55.112Z,12.28
2022-10-25T17:47:21.759Z,12.24
2022-10-25T17:49:48.235Z,12.16
2022-10-25T17:52:14.855Z,12.16
2022-10-25T17:54:41.293Z,12.22
2022-10-25T17:57:09.931Z,12.18
2022-10-25T17:59:36.394Z,12.11
2022-10-25T18:02:03.149Z,12.11
2022-10-25T18:04:41.810Z,12.06
2022-10-25T18:07:16.272Z,11.99
2022-10-25T18:09:42.932Z,11.92
2022-10-25T18:12:09.640Z,11.85
2022-10-25T18:14:36.350Z,11.78
2022-10-25T18:17:02.768Z,11.75
2022-10-25T18:19:29.351Z,11.67
2022-10-25T18:22:00.393Z,11.62
2022-10-25T18:24:30.343Z,11.58
2022-10-25T18:26:57.107Z,11.50
2022-10-25T18:29:23.698Z,11.45
2022-10-25T18:31:50.590Z,11.45
2022-10-25T18:34:18.738Z,11.44
2022-10-25T18:36:45.162Z,11.42
2022-10-25T18:39:11.751Z,11.38
2022-10-25T18:41:42.352Z,11.42
2022-10-25T18:44:14.255Z,11.35
2022-10-25T18:46:42.079Z,11.38
2022-10-25T18:49:12.352Z,11.41
2022-10-25T18:51:40.656Z,11.36
2022-10-25T18:54:09.842Z,11.39
2022-10-25T18:56:36.292Z,11.35
2022-10-25T18:59:03.274Z,11.37
2022-10-25T19:01:32.651Z,11.33
2022-10-25T19:04:01.963Z,11.38
2022-10-25T19:06:29.415Z,11.22
2022-10-25T19:08:56.343Z,11.11
2022-10-25T19:11:22.831Z,11.04
2022-10-25T19:13:53.642Z,10.97
2022-10-25T19:16:20.196Z,10.91
2022-10-25T19:18:46.710Z,10.87
2022-10-25T19:21:16.689Z,10.80
2022-10-25T19:23:46.093Z,10.77
2022-10-25T19:26:16.437Z,10.77
2022-10-25T19:28:43.433Z,10.73
2022-10-25T19:31:15.763Z,10.72
2022-10-25T19:33:50.918Z,10.67
2022-10-25T19:36:17.506Z,10.69
2022-10-25T19:38:50.532Z,10.69
2022-10-25T19:41:19.825Z,10.64
2022-10-25T19:43:47.115Z,10.64
2022-10-25T19:46:14.776Z,10.64
2022-10-25T19:48:41.413Z,10.60
2022-10-25T19:51:13.657Z,10.61
2022-10-25T19:53:40.513Z,10.65
2022-10-25T19:56:10.285Z,10.64
2022-10-25T19:58:36.907Z,10.61
2022-10-25T20:01:08.200Z,10.57
2022-10-25T20:03:36.831Z,10.60
2022-10-25T20:06:06.866Z,10.55
2022-10-25T20:08:34.666Z,10.49
2022-10-25T20:11:02.501Z,10.46
2022-10-25T20:13:29.671Z,10.44
2022-10-25T20:15:56.293Z,10.36
2022-10-25T20:18:24.949Z,10.36
2022-10-25T20:20:57.615Z,10.38
2022-10-25T20:23:24.151Z,10.35
2022-10-25T20:25:50.570Z,10.32
2022-10-25T20:28:16.985Z,10.29
2022-10-25T20:30:43.594Z,10.24
2022-10-25T20:33:10.015Z,10.16
2022-10-25T20:35:38.727Z,10.17
2022-10-25T20:38:06.269Z,10.14
2022-10-25T20:40:34.728Z,10.16
2022-10-25T20:43:01.335Z,10.16
2022-10-25T20:45:29.681Z,10.18
2022-10-25T20:47:57.978Z,10.19
2022-10-25T20:50:26.289Z,10.22
2022-10-25T20:53:09.289Z,10.31
2022-10-25T20:55:36.606Z,10.35
2022-10-25T20:58:03.179Z,10.39
2022-10-25T21:00:29.764Z,10.43
2022-10-25T21:02:56.372Z,10.49
2022-10-25T21:05:22.806Z,10.50
2022-10-25T21:07:49.717Z,10.56
2022-10-25T21:10:16.383Z,10.61
2022-10-25T21:12:42.983Z,10.67
2022-10-25T21:15:12.032Z,10.76
2022-10-25T21:17:39.525Z,10.74
2022-10-25T21:20:06.728Z,10.79
2022-10-25T21:22:33.246Z,10.93
2022-10-25T21:24:59.683Z,10.96
2022-10-25T21:27:27.239Z,10.94
2022-10-25T21:29:53.687Z,10.97
2022-10-25T21:32:20.364Z,10.97
2022-10-25T21:34:46.904Z,11.00
2022-10-25T21:37:13.516Z,11.09
2022-10-25T21:39:39.932Z,11.12
2022-10-25T21:42:06.394Z,11.13
2022-10-25T21:44:34.157Z,11.14
2022-10-25T21:47:00.768Z,11.14
2022-10-25T21:49:27.372Z,11.11
2022-10-25T21:51:53.761Z,11.08
2022-10-25T21:54:21.881Z,11.14
2022-10-25T21:56:48.800Z,11.18
2022-10-25T21:59:15.311Z,11.15
2022-10-25T22:01:41.777Z,11.13
2022-10-25T22:04:08.321Z,11.21
2022-10-25T22:06:35.524Z,11.25
2022-10-25T22:09:02.197Z,11.25
2022-10-25T22:11:32.090Z,11.36
2022-10-25T22:14:01.303Z,11.36
2022-10-25T22:16:29.218Z,11.38
2022-10-25T22:18:58.778Z,11.35
2022-10-25T22:21:27.220Z,11.36
2022-10-25T22:23:53.916Z,11.41
2022-10-25T22:26:21.960Z,11.44
2022-10-25T22:28:56.225Z,11.35
2022-10-25T22:31:23.222Z,11.33
2022-10-25T22:34:16.305Z,11.36
2022-10-25T22:36:42.823Z,11.37
2022-10-25T22:39:10.303Z,11.39
2022-10-25T22:41:37.030Z,11.36
2022-10-25T22:44:03.999Z,11.45
2022-10-25T22:46:33.112Z,11.45
2022-10-25T22:49:04.478Z,11.50
2022-10-25T22:51:31.148Z,11.43
2022-10-25T22:53:58.674Z,11.45
2022-10-25T22:56:29.554Z,11.57
2022-10-25T22:58:59.637Z,11.61
2022-10-25T23:01:31.042Z,11.51
2022-10-25T23:03:58.833Z,11.49
2022-10-25T23:06:28.309Z,11.59
2022-10-25T23:08:59.711Z,11.55
2022-10-25T23:11:28.545Z,11.67
2022-10-25T23:13:56.813Z,11.66
2022-10-25T23:16:23.906Z,11.69
2022-10-25T23:18:50.866Z,11.64
2022-10-25T23:21:29.952Z,11.62
2022-10-25T23:23:57.908Z,11.62
2022-10-25T23:26:36.323Z,11.57
2022-10-25T23:29:03.639Z,11.55
2022-10-25T23:31:30.814Z,11.55
2022-10-25T23:33:59.097Z,11.61
2022-10-25T23:36:28.824Z,11.65
2022-10-25T23:38:56.450Z,11.65
2022-10-25T23:41:23.514Z,11.75
2022-10-25T23:43:50.479Z,11.67
2022-10-25T23:46:17.158Z,11.66
2022-10-25T23:48:43.850Z,11.69
2022-10-25T23:51:13.421Z,11.72
2022-10-25T23:53:40.342Z,11.72
2022-10-25T23:56:08.752Z,11.75
2022-10-25T23:58:35.652Z,11.78
